Time;durP1;ratioP1;P1;durP2;ratioP2;P2;SDS_P1;SDS_P2;PMS_P1;PMS_P2;Temp;Humidity;BMP_temperature;BMP_pressure;BME280_temperature;BME280_humidity;BME280_pressure;Samples;Min_cycle;Max_cycle;Signal;HPM_P1;HPM_P2
2021/06/06 00:00:14;;;;;;;8.50;4.93;;;12.40;99.90;;;;;;5072271;28;20425;-70
2021/06/06 00:02:41;;;;;;;4.97;4.00;;;12.40;99.90;;;;;;5072272;28;20442;-70
2021/06/06 00:05:10;;;;;;;5.33;4.47;;;12.40;99.90;;;;;;5088765;28;20469;-70
2021/06/06 00:07:36;;;;;;;3.93;3.53;;;12.40;99.90;;;;;;5072283;28;20481;-69
2021/06/06 00:10:04;;;;;;;4.80;4.30;;;12.40;99.90;;;;;;5072192;28;20422;-70
2021/06/06 00:12:32;;;;;;;7.27;4.60;;;12.40;99.90;;;;;;5072399;28;20426;-69
2021/06/06 00:15:00;;;;;;;5.47;4.50;;;12.40;99.90;;;;;;5072014;28;20452;-69
2021/06/06 00:17:27;;;;;;;6.30;5.00;;;12.40;99.90;;;;;;5072230;28;20454;-69
2021/06/06 00:19:54;;;;;;;6.30;5.00;;;12.40;99.90;;;;;;5071808;28;20422;-69
2021/06/06 00:22:20;;;;;;;5.93;4.73;;;12.40;99.90;;;;;;5072253;28;20431;-70
2021/06/06 00:24:47;;;;;;;5.80;5.20;;;12.40;99.90;;;;;;5072150;28;20965;-70
2021/06/06 00:27:14;;;;;;;8.27;5.63;;;12.40;99.90;;;;;;5071914;28;20473;-70
2021/06/06 00:29:41;;;;;;;8.93;6.13;;;12.40;99.90;;;;;;5071696;28;20479;-70
2021/06/06 00:32:09;;;;;;;7.37;5.37;;;12.40;99.90;;;;;;5072162;28;20904;-69
2021/06/06 00:34:35;;;;;;;7.70;5.03;;;12.40;99.90;;;;;;5086856;28;20929;-70
2021/06/06 00:37:03;;;;;;;7.97;5.50;;;12.40;99.90;;;;;;5073687;28;20461;-69
2021/06/06 00:39:30;;;;;;;6.47;5.70;;;12.40;99.90;;;;;;5071782;28;20427;-70
2021/06/06 00:41:56;;;;;;;6.73;5.97;;;12.40;99.90;;;;;;5071840;28;20446;-70
2021/06/06 00:44:24;;;;;;;10.80;6.10;;;12.40;99.90;;;;;;5072020;28;20434;-69
2021/06/06 00:46:52;;;;;;;7.10;5.53;;;12.40;99.90;;;;;;5071878;28;20469;-70
2021/06/06 00:49:20;;;;;;;10.00;5.90;;;12.40;99.90;;;;;;5071583;28;20915;-70
2021/06/06 00:51:50;;;;;;;6.77;5.60;;;12.40;99.90;;;;;;5071899;28;20524;-70
2021/06/06 00:54:21;;;;;;;10.43;6.53;;;12.40;99.90;;;;;;5071888;28;20426;-69
2021/06/06 00:56:52;;;;;;;7.17;5.80;;;12.40;99.90;;;;;;5071828;28;20458;-70
2021/06/06 00:59:23;;;;;;;8.50;6.70;;;12.40;99.90;;;;;;5071710;28;20426;-69
2021/06/06 01:01:50;;;;;;;8.90;6.93;;;12.40;99.90;;;;;;5071835;28;20453;-69
2021/06/06 01:04:16;;;;;;;10.50;5.67;;;12.40;99.90;;;;;;5083832;28;20509;-69
2021/06/06 01:06:47;;;;;;;8.87;6.70;;;12.40;99.90;;;;;;5075977;28;20492;-69
2021/06/06 01:09:15;;;;;;;6.57;5.80;;;12.40;99.90;;;;;;5071593;28;20409;-69
2021/06/06 01:11:48;;;;;;;7.10;6.13;;;12.40;99.90;;;;;;5071903;28;20446;-70
2021/06/06 01:14:19;;;;;;;6.80;5.40;;;12.40;99.90;;;;;;5086769;28;20513;-69
2021/06/06 01:17:01;;;;;;;6.60;5.50;;;12.40;99.90;;;;;;5079994;28;20453;-69
2021/06/06 01:19:41;;;;;;;8.13;6.10;;;12.40;99.90;;;;;;5075464;28;20421;-69
2021/06/06 01:22:24;;;;;;;7.67;6.13;;;12.40;99.90;;;;;;5075642;28;20428;-69
2021/06/06 01:24:56;;;;;;;8.00;6.07;;;12.40;99.90;;;;;;5075603;28;20426;-69
2021/06/06 01:27:26;;;;;;;8.63;6.30;;;12.40;99.90;;;;;;5075601;28;20471;-70
2021/06/06 01:29:57;;;;;;;7.90;5.97;;;12.40;99.90;;;;;;5075094;28;20447;-69
2021/06/06 01:32:28;;;;;;;8.57;6.23;;;12.40;99.90;;;;;;5075476;28;20965;-70
2021/06/06 01:34:59;;;;;;;6.87;6.13;;;12.50;99.90;;;;;;5075333;28;20441;-70
2021/06/06 01:37:28;;;;;;;9.23;6.23;;;12.50;99.90;;;;;;5075444;28;20450;-69
2021/06/06 01:40:03;;;;;;;5.67;5.13;;;12.50;99.90;;;;;;5075092;28;20432;-69
2021/06/06 01:42:33;;;;;;;6.43;5.47;;;12.50;99.90;;;;;;5075206;28;20449;-69
2021/06/06 01:45:04;;;;;;;7.70;6.13;;;12.50;99.90;;;;;;5093186;28;20493;-69
2021/06/06 01:47:32;;;;;;;8.70;6.53;;;12.40;99.90;;;;;;5074965;28;20473;-69
2021/06/06 01:50:05;;;;;;;6.63;5.50;;;12.40;99.90;;;;;;5074934;28;20960;-69
2021/06/06 01:52:35;;;;;;;7.53;6.30;;;12.50;99.90;;;;;;5075122;28;20935;-69
2021/06/06 01:55:10;;;;;;;8.27;6.37;;;12.50;99.90;;;;;;5074867;28;20446;-70
2021/06/06 01:57:38;;;;;;;7.27;5.87;;;12.50;99.90;;;;;;5074909;28;20503;-69
2021/06/06 02:00:09;;;;;;;8.83;6.67;;;12.50;99.90;;;;;;5074582;28;20452;-69
2021/06/06 02:02:36;;;;;;;6.70;5.30;;;12.60;99.90;;;;;;5074970;28;20424;-69
2021/06/06 02:05:07;;;;;;;5.60;4.63;;;12.60;99.90;;;;;;5074706;28;20427;-69
2021/06/06 02:07:37;;;;;;;5.80;5.20;;;12.60;99.90;;;;;;5074686;28;20469;-70
2021/06/06 02:10:14;;;;;;;6.17;4.23;;;12.60;99.90;;;;;;5074498;28;20449;-69
2021/06/06 02:12:45;;;;;;;6.67;4.60;;;12.60;99.90;;;;;;5075144;28;20495;-70
2021/06/06 02:15:15;;;;;;;5.90;4.70;;;12.60;99.90;;;;;;5091559;28;20892;-69
2021/06/06 02:17:42;;;;;;;6.20;4.90;;;12.60;99.90;;;;;;5074496;28;20973;-69
2021/06/06 02:20:10;;;;;;;5.20;4.00;;;12.60;99.90;;;;;;5074028;28;20925;-70
2021/06/06 02:22:37;;;;;;;4.27;3.87;;;12.60;99.90;;;;;;5074696;28;20800;-69
2021/06/06 02:25:06;;;;;;;5.03;4.50;;;12.60;99.90;;;;;;5093043;28;20552;-69
2021/06/06 02:27:39;;;;;;;4.90;4.40;;;12.70;99.90;;;;;;5094546;28;20472;-70
2021/06/06 02:30:14;;;;;;;5.83;4.87;;;12.60;99.90;;;;;;5094223;28;20526;-70
2021/06/06 02:32:48;;;;;;;4.63;3.70;;;12.60;99.90;;;;;;5094520;28;20426;-70
2021/06/06 02:35:20;;;;;;;5.03;4.57;;;12.70;99.90;;;;;;5094643;28;20422;-69
2021/06/06 02:37:52;;;;;;;4.50;3.90;;;12.70;99.90;;;;;;5094311;28;20986;-69
2021/06/06 02:40:26;;;;;;;5.33;3.43;;;12.70;99.90;;;;;;5094223;28;20422;-69
2021/06/06 02:42:56;;;;;;;4.50;4.10;;;12.70;99.90;;;;;;5094312;28;20426;-69
2021/06/06 02:45:26;;;;;;;6.53;3.73;;;12.70;99.90;;;;;;5094420;28;20486;-69
2021/06/06 02:47:56;;;;;;;3.80;3.50;;;12.70;99.90;;;;;;5094204;28;20826;-69
2021/06/06 02:50:27;;;;;;;3.40;3.10;;;12.70;99.90;;;;;;5094000;28;20433;-69
2021/06/06 02:52:57;;;;;;;6.93;3.67;;;12.60;99.90;;;;;;5094138;28;20437;-69
2021/06/06 02:55:28;;;;;;;6.87;4.23;;;12.70;99.90;;;;;;5089151;28;20495;-69
2021/06/06 02:58:01;;;;;;;3.10;2.80;;;12.60;99.90;;;;;;5073783;28;20963;-70
2021/06/06 03:00:32;;;;;;;4.83;2.80;;;12.70;99.90;;;;;;5073646;28;20515;-70
2021/06/06 03:03:04;;;;;;;2.90;2.60;;;12.70;99.90;;;;;;5073795;28;20426;-69
2021/06/06 03:05:31;;;;;;;2.70;2.50;;;12.70;99.90;;;;;;5073739;28;20498;-70
2021/06/06 03:08:01;;;;;;;3.37;2.53;;;12.70;99.90;;;;;;5073560;28;20456;-70
2021/06/06 03:10:29;;;;;;;3.40;2.30;;;12.70;99.90;;;;;;5073388;28;20532;-70
2021/06/06 03:13:02;;;;;;;3.00;2.40;;;12.80;99.90;;;;;;5073537;28;20422;-69
2021/06/06 03:15:32;;;;;;;2.77;2.20;;;12.70;99.90;;;;;;5073607;28;20427;-70
2021/06/06 03:18:01;;;;;;;2.13;1.93;;;12.70;99.90;;;;;;5073342;28;20450;-71
2021/06/06 03:20:33;;;;;;;1.87;1.73;;;12.70;99.90;;;;;;5073146;28;20492;-71
2021/06/06 03:23:02;;;;;;;1.67;1.57;;;12.80;99.90;;;;;;5075329;28;20439;-70
2021/06/06 03:25:38;;;;;;;2.30;1.33;;;12.70;99.90;;;;;;5087918;28;20437;-71
2021/06/06 03:28:07;;;;;;;1.40;1.30;;;12.80;99.90;;;;;;5073223;28;20442;-71
2021/06/06 03:30:38;;;;;;;1.13;1.03;;;12.80;99.90;;;;;;5072901;28;20450;-70
2021/06/06 03:33:09;;;;;;;1.70;1.50;;;12.80;99.90;;;;;;5073146;28;20423;-71
2021/06/06 03:35:36;;;;;;;1.00;0.80;;;12.80;99.90;;;;;;5072874;28;20429;-71
2021/06/06 03:38:04;;;;;;;1.20;0.90;;;12.80;99.90;;;;;;5072947;28;20792;-71
2021/06/06 03:40:33;;;;;;;1.37;0.90;;;12.80;99.90;;;;;;5072727;28;20581;-71
2021/06/06 03:43:00;;;;;;;0.90;0.70;;;12.80;99.90;;;;;;5072918;28;20864;-71
2021/06/06 03:45:28;;;;;;;1.10;0.87;;;12.80;99.90;;;;;;5072840;28;20464;-71
2021/06/06 03:47:56;;;;;;;1.23;1.13;;;12.80;99.90;;;;;;5072641;28;20480;-71
2021/06/06 03:50:23;;;;;;;1.20;1.00;;;12.80;99.90;;;;;;5072561;28;20428;-71
2021/06/06 03:52:51;;;;;;;2.13;0.80;;;12.90;99.90;;;;;;5073583;28;20768;-71
2021/06/06 03:55:19;;;;;;;0.90;0.80;;;12.90;99.90;;;;;;5088754;28;20475;-71
2021/06/06 03:57:46;;;;;;;0.90;0.77;;;12.90;99.90;;;;;;5072541;28;20448;-71
2021/06/06 04:00:16;;;;;;;1.00;0.90;;;12.90;99.90;;;;;;5072448;28;20436;-71
2021/06/06 04:02:45;;;;;;;1.03;0.93;;;12.90;99.90;;;;;;5072535;28;20504;-71
2021/06/06 04:05:13;;;;;;;3.33;1.30;;;12.90;99.90;;;;;;5072465;28;20438;-71
2021/06/06 04:07:39;;;;;;;1.10;0.80;;;12.90;99.90;;;;;;5072512;28;20733;-71
2021/06/06 04:10:07;;;;;;;1.47;1.20;;;13.00;99.90;;;;;;5088993;28;20449;-71
2021/06/06 04:12:34;;;;;;;1.10;1.00;;;12.90;99.90;;;;;;5072421;28;20474;-71
2021/06/06 04:15:01;;;;;;;1.57;0.90;;;13.00;99.90;;;;;;5072345;28;20424;-71
2021/06/06 04:17:28;;;;;;;0.90;0.60;;;13.00;99.90;;;;;;5072315;28;20467;-71
2021/06/06 04:19:56;;;;;;;1.00;0.70;;;12.90;99.90;;;;;;5072270;28;20794;-71
2021/06/06 04:22:23;;;;;;;1.00;0.70;;;12.90;99.90;;;;;;5072361;28;20926;-71
2021/06/06 04:24:50;;;;;;;0.90;0.60;;;12.90;99.90;;;;;;5071960;28;20979;-71
2021/06/06 04:27:17;;;;;;;1.00;0.80;;;12.90;99.90;;;;;;5072121;28;20482;-71
2021/06/06 04:29:45;;;;;;;0.80;0.60;;;12.80;99.90;;;;;;5071838;28;20455;-71
2021/06/06 04:32:14;;;;;;;0.90;0.60;;;12.90;99.90;;;;;;5072142;28;20431;-71
2021/06/06 04:34:41;;;;;;;1.40;0.67;;;12.80;99.90;;;;;;5072167;28;20428;-71
2021/06/06 04:37:10;;;;;;;1.10;0.80;;;12.90;99.90;;;;;;5085770;28;20468;-71
2021/06/06 04:39:37;;;;;;;0.90;0.60;;;12.90;99.90;;;;;;5076805;28;20422;-72
2021/06/06 04:42:05;;;;;;;1.00;0.70;;;12.90;99.90;;;;;;5072105;28;20479;-71
2021/06/06 04:44:31;;;;;;;0.90;0.60;;;12.90;99.90;;;;;;5072021;28;20833;-71
2021/06/06 04:46:58;;;;;;;1.00;0.70;;;12.90;99.90;;;;;;5071598;28;20486;-70
2021/06/06 04:49:25;;;;;;;0.90;0.60;;;12.90;99.90;;;;;;5087536;28;20437;-71
2021/06/06 04:51:52;;;;;;;0.93;0.70;;;12.90;99.90;;;;;;5075009;28;20430;-71
2021/06/06 04:54:20;;;;;;;1.10;0.70;;;13.00;99.90;;;;;;5071760;28;20432;-71
2021/06/06 04:56:47;;;;;;;0.80;0.60;;;13.00;99.90;;;;;;5071853;28;20448;-71
2021/06/06 04:59:14;;;;;;;0.90;0.60;;;13.00;99.90;;;;;;5088406;28;20438;-71
2021/06/06 05:01:40;;;;;;;0.90;0.70;;;13.00;99.90;;;;;;5091841;28;20863;-71
2021/06/06 05:04:07;;;;;;;2.30;0.80;;;13.00;99.90;;;;;;5091725;28;20448;-71
2021/06/06 05:06:34;;;;;;;1.40;0.87;;;13.10;99.90;;;;;;5091718;28;20472;-71
2021/06/06 05:09:01;;;;;;;1.43;0.93;;;13.10;99.90;;;;;;5091904;28;20490;-72
2021/06/06 05:11:29;;;;;;;1.40;0.90;;;13.10;99.90;;;;;;5091848;28;20447;-71
2021/06/06 05:13:56;;;;;;;1.13;1.03;;;13.10;99.90;;;;;;5091829;28;20447;-71
2021/06/06 05:16:23;;;;;;;1.20;1.00;;;13.10;99.90;;;;;;5091826;28;20435;-71
2021/06/06 05:18:50;;;;;;;1.30;1.00;;;13.00;99.90;;;;;;5090586;28;20479;-71
2021/06/06 05:21:16;;;;;;;1.40;0.80;;;13.10;99.90;;;;;;5083297;28;20457;-71
2021/06/06 05:23:43;;;;;;;1.17;0.87;;;13.00;99.90;;;;;;5091738;28;20521;-71
2021/06/06 05:26:10;;;;;;;0.90;0.80;;;13.10;99.90;;;;;;5091693;28;20474;-71
2021/06/06 05:28:38;;;;;;;1.40;1.03;;;13.00;99.90;;;;;;5091535;28;20462;-72
2021/06/06 05:31:07;;;;;;;1.10;0.90;;;13.00;99.90;;;;;;5090663;28;20450;-71
2021/06/06 05:33:34;;;;;;;1.03;0.70;;;13.10;99.90;;;;;;5077001;28;20430;-71
2021/06/06 05:36:01;;;;;;;1.00;0.80;;;13.10;99.90;;;;;;5071772;28;20439;-71
2021/06/06 05:38:31;;;;;;;1.20;0.90;;;13.10;99.90;;;;;;5071168;28;20475;-72
2021/06/06 05:40:58;;;;;;;0.90;0.70;;;13.00;99.90;;;;;;5071458;28;20442;-71
2021/06/06 05:43:26;;;;;;;1.07;0.77;;;13.00;99.90;;;;;;5071441;28;20426;-71
2021/06/06 05:45:56;;;;;;;2.10;0.80;;;13.00;99.90;;;;;;5071265;28;20433;-71
2021/06/06 05:48:24;;;;;;;1.00;0.70;;;13.10;99.90;;;;;;5070784;28;20571;-71
2021/06/06 05:51:02;;;;;;;1.77;1.00;;;13.10;99.90;;;;;;5071325;28;20426;-71
2021/06/06 05:53:29;;;;;;;1.00;0.90;;;13.20;99.90;;;;;;5071485;28;20512;-71
2021/06/06 05:55:56;;;;;;;1.40;1.03;;;13.20;99.90;;;;;;5071441;28;20430;-71
2021/06/06 05:58:23;;;;;;;1.20;0.93;;;13.20;99.90;;;;;;5071108;28;20455;-71
2021/06/06 06:00:52;;;;;;;4.83;1.20;;;13.30;99.90;;;;;;5086618;28;20453;-71
2021/06/06 06:03:21;;;;;;;1.90;1.40;;;13.30;99.90;;;;;;5087095;28;20463;-71
2021/06/06 06:05:48;;;;;;;1.70;1.30;;;13.30;99.90;;;;;;5095119;28;20963;-71
2021/06/06 06:08:19;;;;;;;2.13;1.93;;;13.30;99.90;;;;;;5094704;28;20880;-71
2021/06/06 06:10:46;;;;;;;2.80;2.20;;;13.30;99.90;;;;;;5094939;28;20443;-71
2021/06/06 06:13:13;;;;;;;4.60;2.50;;;13.30;99.90;;;;;;5094846;28;20929;-71
2021/06/06 06:15:40;;;;;;;3.37;2.90;;;13.40;99.90;;;;;;5094923;28;20431;-72
2021/06/06 06:18:09;;;;;;;4.33;2.87;;;13.40;99.90;;;;;;5094735;28;20540;-71
2021/06/06 06:20:38;;;;;;;3.80;3.23;;;13.50;99.90;;;;;;5094763;28;20427;-71
2021/06/06 06:23:05;;;;;;;5.50;2.90;;;13.50;99.90;;;;;;5094852;28;20430;-71
2021/06/06 06:25:32;;;;;;;4.33;2.93;;;13.50;99.90;;;;;;5094803;28;20427;-71
2021/06/06 06:28:00;;;;;;;4.70;3.27;;;13.40;99.90;;;;;;5094530;28;20983;-71
2021/06/06 06:30:30;;;;;;;4.93;4.37;;;13.40;99.90;;;;;;5094080;28;20516;-71
2021/06/06 06:32:57;;;;;;;5.90;3.97;;;13.50;99.90;;;;;;5085010;28;20462;-72
2021/06/06 06:35:25;;;;;;;8.30;4.93;;;13.50;99.90;;;;;;5074387;28;20422;-71
2021/06/06 06:37:53;;;;;;;4.97;3.40;;;13.40;99.90;;;;;;5074184;28;21024;-71
2021/06/06 06:40:21;;;;;;;6.03;4.10;;;13.50;99.90;;;;;;5074007;28;20494;-71
2021/06/06 06:42:49;;;;;;;7.10;4.30;;;13.50;99.90;;;;;;5074580;28;20810;-71
2021/06/06 06:45:21;;;;;;;9.40;5.80;;;13.50;99.90;;;;;;5074683;28;20431;-71
2021/06/06 06:47:48;;;;;;;7.60;4.77;;;13.60;99.90;;;;;;5074626;28;20520;-71
2021/06/06 06:50:19;;;;;;;5.57;3.90;;;13.60;99.90;;;;;;5073395;28;20433;-71
2021/06/06 06:52:46;;;;;;;5.43;4.17;;;13.60;99.90;;;;;;5073944;28;20440;-71
2021/06/06 06:55:18;;;;;;;5.00;4.20;;;13.60;99.90;;;;;;5074086;28;20419;-71
2021/06/06 06:57:44;;;;;;;6.70;4.50;;;13.60;99.90;;;;;;5074049;28;20444;-71
2021/06/06 07:00:15;;;;;;;5.70;4.00;;;13.60;99.90;;;;;;5080597;28;20455;-70
2021/06/06 07:02:42;;;;;;;9.03;5.07;;;13.60;99.90;;;;;;5086715;28;20440;-71
2021/06/06 07:05:10;;;;;;;6.57;4.30;;;13.60;99.90;;;;;;5073486;28;20472;-72
2021/06/06 07:07:37;;;;;;;6.40;4.50;;;13.50;99.90;;;;;;5073507;28;20570;-71
2021/06/06 07:10:05;;;;;;;5.37;3.93;;;13.50;99.90;;;;;;5073446;28;20938;-71
2021/06/06 07:12:34;;;;;;;5.07;3.77;;;13.60;99.90;;;;;;5072655;28;20442;-71
2021/06/06 07:15:00;;;;;;;5.07;3.63;;;13.60;99.90;;;;;;5073588;28;20429;-71
2021/06/06 07:17:27;;;;;;;4.80;4.30;;;13.60;99.90;;;;;;5073323;28;20455;-71
2021/06/06 07:19:54;;;;;;;4.00;3.60;;;13.60;99.90;;;;;;5089677;28;20457;-71
2021/06/06 07:22:21;;;;;;;6.50;3.47;;;13.60;99.90;;;;;;5073436;28;20479;-71
2021/06/06 07:24:47;;;;;;;4.40;3.53;;;13.50;99.90;;;;;;5073515;28;20589;-70
2021/06/06 07:27:14;;;;;;;5.03;4.00;;;13.50;99.90;;;;;;5073179;28;20561;-71
2021/06/06 07:29:53;;;;;;;4.67;3.60;;;13.60;99.90;;;;;;5083393;28;20953;-72
2021/06/06 07:32:22;;;;;;;4.03;2.80;;;13.70;99.90;;;;;;5093375;28;20973;-71
2021/06/06 07:34:49;;;;;;;4.33;3.13;;;13.70;99.90;;;;;;5093463;28;20440;-71
2021/06/06 07:37:17;;;;;;;4.50;3.93;;;13.70;99.90;;;;;;5093400;28;20461;-71
2021/06/06 07:39:47;;;;;;;4.13;3.47;;;13.70;99.90;;;;;;5093102;28;20442;-71
2021/06/06 07:42:17;;;;;;;4.60;3.67;;;13.70;99.90;;;;;;5093293;28;20423;-71
2021/06/06 07:44:45;;;;;;;4.03;3.60;;;13.70;99.90;;;;;;5093069;28;20484;-71
2021/06/06 07:47:12;;;;;;;4.80;4.00;;;13.70;99.90;;;;;;5093027;28;20481;-71
2021/06/06 07:49:40;;;;;;;6.03;4.47;;;13.70;99.90;;;;;;5092989;28;21013;-71
2021/06/06 07:52:11;;;;;;;4.87;3.77;;;13.70;99.90;;;;;;5093109;28;20437;-71
2021/06/06 07:54:40;;;;;;;5.00;3.37;;;13.70;99.90;;;;;;5093135;28;20508;-70
2021/06/06 07:57:08;;;;;;;5.23;3.50;;;13.70;99.90;;;;;;5093032;28;21002;-71
2021/06/06 07:59:35;;;;;;;4.67;3.80;;;13.80;99.90;;;;;;5092339;28;20455;-71
2021/06/06 08:02:07;;;;;;;3.87;3.07;;;13.80;99.90;;;;;;5083937;28;20440;-71
2021/06/06 08:04:36;;;;;;;3.53;3.23;;;13.80;99.90;;;;;;5072563;28;20451;-72
2021/06/06 08:07:03;;;;;;;4.47;3.47;;;13.90;99.90;;;;;;5072469;28;20481;-71
2021/06/06 08:09:30;;;;;;;6.40;3.53;;;13.90;99.90;;;;;;5072493;28;20514;-71
2021/06/06 08:11:57;;;;;;;4.30;3.30;;;13.90;99.90;;;;;;5072469;28;20425;-71
2021/06/06 08:14:24;;;;;;;4.53;3.43;;;13.90;99.90;;;;;;5072224;28;20431;-70
2021/06/06 08:16:50;;;;;;;4.17;3.60;;;14.00;99.90;;;;;;5072321;28;20454;-70
2021/06/06 08:19:19;;;;;;;3.73;3.33;;;13.90;99.90;;;;;;5072152;28;20430;-70
2021/06/06 08:21:47;;;;;;;3.40;3.10;;;14.00;99.90;;;;;;5072333;28;20428;-71
2021/06/06 08:24:14;;;;;;;3.60;3.30;;;13.90;99.90;;;;;;5084950;28;20925;-70
2021/06/06 08:26:41;;;;;;;2.97;2.50;;;13.90;99.90;;;;;;5076604;28;20799;-71
2021/06/06 08:29:09;;;;;;;4.50;3.73;;;13.90;99.90;;;;;;5071939;28;20407;-71
2021/06/06 08:31:39;;;;;;;3.77;3.23;;;13.90;99.90;;;;;;5072229;28;20470;-71
2021/06/06 08:34:07;;;;;;;3.73;3.30;;;13.90;99.90;;;;;;5072166;28;20846;-71
2021/06/06 08:36:37;;;;;;;4.70;3.83;;;13.90;99.90;;;;;;5072030;28;20501;-71
2021/06/06 08:39:07;;;;;;;3.73;3.33;;;14.00;99.90;;;;;;5071802;28;20430;-70
2021/06/06 08:41:43;;;;;;;3.80;3.30;;;14.00;99.90;;;;;;5072085;28;20430;-70
2021/06/06 08:44:16;;;;;;;3.50;3.00;;;14.00;99.90;;;;;;5071839;28;20443;-71
2021/06/06 08:47:00;;;;;;;2.83;2.63;;;14.00;99.90;;;;;;5071795;28;20468;-72
2021/06/06 08:49:30;;;;;;;5.20;3.40;;;14.00;99.90;;;;;;5087579;28;20553;-71
2021/06/06 08:52:15;;;;;;;3.43;3.13;;;14.00;99.90;;;;;;5074441;28;20450;-71
2021/06/06 08:54:51;;;;;;;3.33;2.83;;;14.00;99.90;;;;;;5087558;28;20454;-71
2021/06/06 08:57:22;;;;;;;3.40;3.07;;;14.10;99.90;;;;;;5071930;28;20452;-71
2021/06/06 08:59:53;;;;;;;4.67;3.40;;;14.00;99.90;;;;;;5071218;28;20940;-71
2021/06/06 09:02:26;;;;;;;4.60;3.57;;;14.10;99.90;;;;;;5071811;28;20451;-71
2021/06/06 09:04:53;;;;;;;5.47;3.80;;;14.00;99.90;;;;;;5071699;28;20420;-71
2021/06/06 09:07:31;;;;;;;3.77;3.47;;;14.10;99.90;;;;;;5071672;28;20475;-71
2021/06/06 09:10:00;;;;;;;4.97;4.27;;;14.00;99.90;;;;;;5071550;28;20421;-70
2021/06/06 09:12:27;;;;;;;8.13;4.03;;;14.10;99.90;;;;;;5071744;28;20528;-71
2021/06/06 09:14:56;;;;;;;4.10;3.33;;;14.10;99.90;;;;;;5071367;28;21043;-71
2021/06/06 09:17:35;;;;;;;5.67;4.40;;;14.20;99.90;;;;;;5071593;28;20452;-71
2021/06/06 09:20:05;;;;;;;4.43;3.73;;;14.20;99.90;;;;;;5071298;28;20427;-71
2021/06/06 09:22:37;;;;;;;4.63;3.50;;;14.20;99.90;;;;;;5071637;28;20428;-71
2021/06/06 09:25:12;;;;;;;5.47;4.03;;;14.30;99.90;;;;;;5088561;28;20444;-71
2021/06/06 09:27:40;;;;;;;5.40;3.30;;;14.30;99.90;;;;;;5071604;28;20510;-71
2021/06/06 09:30:12;;;;;;;3.80;2.80;;;14.30;99.90;;;;;;5069714;28;20448;-71
2021/06/06 09:32:39;;;;;;;4.03;3.60;;;14.20;99.90;;;;;;5071405;28;20523;-71
2021/06/06 09:35:19;;;;;;;4.10;3.63;;;14.20;99.90;;;;;;5073551;28;20430;-71
2021/06/06 09:37:51;;;;;;;3.77;3.00;;;14.20;99.90;;;;;;5075572;28;20469;-71
2021/06/06 09:40:30;;;;;;;3.80;3.07;;;14.20;99.90;;;;;;5075365;28;20465;-71
2021/06/06 09:42:57;;;;;;;3.10;2.00;;;14.30;99.90;;;;;;5075296;28;20448;-71
2021/06/06 09:45:27;;;;;;;2.80;2.50;;;14.30;99.90;;;;;;5074953;28;20440;-71
2021/06/06 09:48:04;;;;;;;7.87;2.83;;;14.40;99.90;;;;;;5074949;28;20483;-71
2021/06/06 09:50:34;;;;;;;3.80;2.30;;;14.40;99.90;;;;;;5074830;28;20431;-71
2021/06/06 09:53:19;;;;;;;2.47;2.10;;;14.40;99.90;;;;;;5077125;28;20425;-71
2021/06/06 09:55:46;;;;;;;2.90;1.80;;;14.50;99.90;;;;;;5087356;28;20500;-71
2021/06/06 09:58:18;;;;;;;2.37;2.17;;;14.50;99.90;;;;;;5074625;28;20455;-72
2021/06/06 10:00:49;;;;;;;1.90;1.80;;;14.50;99.90;;;;;;5074840;28;20430;-71
2021/06/06 10:03:26;;;;;;;3.20;1.70;;;14.50;99.90;;;;;;5075358;28;20447;-71
2021/06/06 10:05:54;;;;;;;2.50;2.17;;;14.50;99.90;;;;;;5075079;28;20461;-71
2021/06/06 10:08:25;;;;;;;2.40;2.20;;;14.40;99.90;;;;;;5074391;28;20478;-71
2021/06/06 10:10:54;;;;;;;2.43;2.23;;;14.40;99.90;;;;;;5074615;28;20445;-72
2021/06/06 10:13:25;;;;;;;4.70;3.77;;;14.50;99.90;;;;;;5079857;28;20461;-71
2021/06/06 10:15:57;;;;;;;3.20;2.80;;;14.40;99.90;;;;;;5086034;28;20501;-71
2021/06/06 10:18:28;;;;;;;2.57;2.20;;;14.50;99.90;;;;;;5074796;28;20516;-71
2021/06/06 10:20:59;;;;;;;2.90;2.17;;;14.40;99.90;;;;;;5093909;28;20430;-71
2021/06/06 10:23:33;;;;;;;1.80;1.60;;;14.50;99.90;;;;;;5074567;28;20427;-71
2021/06/06 10:26:03;;;;;;;1.90;1.63;;;14.50;99.90;;;;;;5074622;28;20434;-71
2021/06/06 10:28:33;;;;;;;1.63;1.37;;;14.50;99.90;;;;;;5074160;28;20479;-71
2021/06/06 10:31:05;;;;;;;3.03;1.80;;;14.50;99.90;;;;;;5074161;28;20440;-71
2021/06/06 10:33:36;;;;;;;1.93;1.47;;;14.60;99.90;;;;;;5074369;28;20443;-71
2021/06/06 10:36:05;;;;;;;2.17;1.90;;;14.60;99.90;;;;;;5074315;28;20825;-71
2021/06/06 10:38:35;;;;;;;2.23;2.03;;;14.70;99.90;;;;;;5074041;28;20455;-71
2021/06/06 10:41:12;;;;;;;2.00;1.17;;;14.70;99.90;;;;;;5074188;28;20461;-71
2021/06/06 10:43:47;;;;;;;1.57;1.37;;;14.80;99.90;;;;;;5074310;28;20464;-71
2021/06/06 10:46:19;;;;;;;1.37;1.10;;;14.80;99.90;;;;;;5074074;28;20456;-71
2021/06/06 10:48:51;;;;;;;1.57;1.00;;;14.70;99.90;;;;;;5077696;28;20552;-71
2021/06/06 10:51:31;;;;;;;1.20;1.10;;;14.80;99.90;;;;;;5086101;28;20958;-72
2021/06/06 10:54:03;;;;;;;1.53;1.03;;;14.80;99.90;;;;;;5094248;28;20463;-71
2021/06/06 10:56:35;;;;;;;1.10;1.00;;;14.80;99.90;;;;;;5094061;28;20429;-71
2021/06/06 10:59:06;;;;;;;1.73;1.03;;;14.80;99.90;;;;;;5093725;28;20428;-71
2021/06/06 11:01:49;;;;;;;1.30;0.93;;;14.80;99.90;;;;;;5094388;28;20427;-71
2021/06/06 11:04:19;;;;;;;1.57;1.47;;;14.80;99.90;;;;;;5094064;28;20424;-71
2021/06/06 11:06:48;;;;;;;2.40;1.50;;;14.80;99.90;;;;;;5093865;28;20491;-71
2021/06/06 11:09:29;;;;;;;2.70;1.93;;;14.80;99.90;;;;;;5093574;28;20472;-71
2021/06/06 11:11:58;;;;;;;2.07;1.87;;;14.80;99.90;;;;;;5094154;28;20541;-71
2021/06/06 11:14:34;;;;;;;2.43;2.23;;;14.70;99.90;;;;;;5093684;28;20431;-71
2021/06/06 11:17:10;;;;;;;2.13;1.90;;;14.60;99.90;;;;;;5093738;28;20451;-71
2021/06/06 11:19:37;;;;;;;2.70;2.10;;;14.70;99.90;;;;;;5092507;28;20489;-71
2021/06/06 11:22:30;;;;;;;1.43;1.33;;;14.70;99.90;;;;;;5083267;28;20465;-71
2021/06/06 11:24:59;;;;;;;2.00;1.60;;;14.60;99.90;;;;;;5073233;28;20448;-70
2021/06/06 11:27:31;;;;;;;1.50;1.33;;;14.60;99.90;;;;;;5073294;28;20477;-71
2021/06/06 11:30:03;;;;;;;2.67;1.43;;;14.60;99.90;;;;;;5072881;28;20474;-71
2021/06/06 11:32:38;;;;;;;3.50;1.30;;;14.60;99.90;;;;;;5073368;28;20537;-71
2021/06/06 11:35:30;;;;;;;1.60;1.50;;;14.60;99.90;;;;;;5073401;28;20465;-72
2021/06/06 11:38:03;;;;;;;1.30;1.20;;;14.60;99.90;;;;;;5052819;28;20470;-72
2021/06/06 11:40:38;;;;;;;1.40;1.30;;;14.60;99.90;;;;;;5093036;28;20423;-71
2021/06/06 11:43:25;;;;;;;1.30;1.10;;;14.60;99.90;;;;;;5093324;28;20424;-71
2021/06/06 11:45:53;;;;;;;1.50;1.40;;;14.60;99.90;;;;;;5093049;28;20472;-69
2021/06/06 11:48:30;;;;;;;1.30;1.20;;;14.60;99.90;;;;;;5092879;28;20466;-70
2021/06/06 11:50:59;;;;;;;1.20;1.10;;;14.60;99.90;;;;;;5093106;28;20456;-70
2021/06/06 11:53:31;;;;;;;0.90;0.70;;;14.50;99.90;;;;;;5093185;28;20545;-70
2021/06/06 11:56:14;;;;;;;1.17;0.80;;;14.50;99.90;;;;;;5093189;28;20414;-70
2021/06/06 11:58:45;;;;;;;1.70;1.00;;;14.50;99.90;;;;;;5092256;28;20442;-70
2021/06/06 12:01:17;;;;;;;0.97;0.80;;;14.60;99.90;;;;;;5093010;28;20903;-70
2021/06/06 12:03:46;;;;;;;1.97;0.90;;;14.70;99.90;;;;;;5093186;28;20471;-70
2021/06/06 12:06:25;;;;;;;1.00;0.80;;;14.70;99.90;;;;;;5093225;28;20466;-70
2021/06/06 12:08:56;;;;;;;1.10;0.90;;;14.60;99.90;;;;;;5092454;28;20577;-70
2021/06/06 12:11:29;;;;;;;1.27;0.90;;;14.60;99.90;;;;;;5092548;28;21094;-70
2021/06/06 12:14:09;;;;;;;1.77;1.20;;;14.50;99.90;;;;;;5091921;28;20459;-70
2021/06/06 12:16:36;;;;;;;1.40;1.30;;;14.60;99.90;;;;;;5092693;28;21060;-70
2021/06/06 12:19:06;;;;;;;3.47;1.37;;;14.60;99.90;;;;;;5092405;28;20917;-70
2021/06/06 12:21:37;;;;;;;2.07;1.60;;;14.70;99.90;;;;;;5092733;28;20523;-69
2021/06/06 12:24:11;;;;;;;2.07;1.70;;;14.70;99.90;;;;;;5091834;28;20489;-70
2021/06/06 12:26:42;;;;;;;1.53;1.43;;;14.70;99.90;;;;;;5085655;28;20471;-70
2021/06/06 12:29:08;;;;;;;1.73;1.57;;;14.70;99.90;;;;;;5072175;28;20419;-70
2021/06/06 12:31:38;;;;;;;4.03;1.93;;;14.80;99.90;;;;;;5071951;28;20951;-69
2021/06/06 12:34:20;;;;;;;1.43;1.33;;;14.80;99.90;;;;;;5082950;28;20537;-69
2021/06/06 12:36:48;;;;;;;2.57;1.50;;;14.80;99.90;;;;;;5075892;28;20454;-69
2021/06/06 12:39:18;;;;;;;1.70;1.60;;;14.60;99.90;;;;;;5072152;28;20450;-70
2021/06/06 12:41:48;;;;;;;2.40;1.90;;;14.70;99.90;;;;;;5072025;28;20437;-70
2021/06/06 12:44:17;;;;;;;2.17;1.80;;;14.80;99.90;;;;;;5071984;28;20486;-69
2021/06/06 12:46:49;;;;;;;2.80;2.20;;;14.80;99.90;;;;;;5071870;28;20444;-70
2021/06/06 12:49:28;;;;;;;3.70;3.10;;;14.90;99.90;;;;;;5071865;28;20428;-70
2021/06/06 12:51:55;;;;;;;3.27;2.63;;;14.90;99.90;;;;;;5072033;28;20428;-69
2021/06/06 12:54:31;;;;;;;2.50;2.10;;;14.90;99.90;;;;;;5071724;28;20489;-70
2021/06/06 12:57:07;;;;;;;3.83;3.40;;;15.00;99.90;;;;;;5070713;28;20469;-70
2021/06/06 12:59:35;;;;;;;3.57;2.87;;;15.00;99.90;;;;;;5071482;28;20939;-70